»·PEaware :: N364CM KLAX-KSNA

N364CM :: KLAX-KSNA

FLIGHT INFORMATION

Flight Status: Arrived
Operator: Privately registered:
United States
More flights under this callsign
Pilot: Brian S. (32023)
Aircraft: BEECH AIRCRAFT SUPER KING AIR 350
(B350)
More flights by this aircraft type
Origin: KLAX Los Angeles Intl
United States
Destination: KSNA John Wayne-Orange Co
United States
More flights between these airports :: More routes between these airports
Route: SLI8 SLI
File this flight plan on PilotEdge
Remarks: TEC route LAXP34
Altitude:
(Current/Filed)
5,000ft
Speed:
(Current/Filed)
260kts
Departed: 10-Nov-20 06:08 PM
Arrived: 10-Nov-20 06:40 PM
Distance/Time
Traveled:
31nm/0:32
Distance/Time
To Go:
Arrived

Flight Plot

Page will automatically refresh every two minutes.

Flight plan parsing failed; only flown route is shown


Map Options




Map Legend


Flown Route
Filed Route
Departure Airport
Arrival Airport
Navaid (VOR, NDB)
Fix

Horizontal Profiles

Position Reports

Time Latitude Longitude Heading Altitude Ground
Speed
10-Nov-20 17:51 33.933210 -118.397431 263 110ft 0kts
10-Nov-20 17:52 33.933210 -118.397431 263 110ft 0kts
10-Nov-20 17:53 33.933210 -118.397431 263 110ft 0kts
10-Nov-20 17:54 33.933210 -118.397431 263 110ft 0kts
10-Nov-20 17:55 33.933210 -118.397431 263 110ft 0kts
10-Nov-20 17:56 33.933210 -118.397431 263 110ft 0kts
10-Nov-20 17:57 33.933210 -118.397431 263 110ft 0kts
10-Nov-20 17:58 33.933210 -118.397431 263 110ft 0kts
10-Nov-20 17:59 33.933210 -118.397431 263 110ft 0kts
10-Nov-20 18:00 33.933210 -118.397431 263 110ft 0kts
10-Nov-20 18:01 33.933210 -118.397431 263 110ft 0kts
10-Nov-20 18:02 33.933210 -118.397431 263 110ft 0kts
10-Nov-20 18:03 33.934510 -118.398069 55 110ft 7kts
10-Nov-20 18:04 33.935299 -118.390875 83 103ft 24kts
10-Nov-20 18:05 33.936129 -118.383120 61 97ft 6kts
10-Nov-20 18:06 33.937234 -118.384041 260 98ft 13kts
10-Nov-20 18:07 33.933872 -118.414825 264 319ft 150kts
10-Nov-20 18:08 33.928981 -118.468428 264 1350ft 165kts
10-Nov-20 18:09 33.923936 -118.523799 264 2467ft 167kts
10-Nov-20 18:10 33.911714 -118.575428 202 3519ft 169kts
10-Nov-20 18:11 33.865532 -118.570241 172 4582ft 168kts
10-Nov-20 18:12 33.815241 -118.561458 172 4900ft 205kts
10-Nov-20 18:13 33.754812 -118.550909 172 4887ft 230kts
10-Nov-20 18:14 33.690206 -118.539630 172 4883ft 239kts
10-Nov-20 18:15 33.623856 -118.528037 172 4881ft 243kts
10-Nov-20 18:16 33.595042 -118.470603 60 4879ft 241kts
10-Nov-20 18:17 33.643295 -118.415668 66 4875ft 242kts
10-Nov-20 18:18 33.672593 -118.340555 65 4361ft 262kts
10-Nov-20 18:19 33.703219 -118.261642 65 4037ft 260kts
10-Nov-20 18:20 33.733606 -118.183148 65 3877ft 254kts
10-Nov-20 18:21 33.763179 -118.106763 65 3879ft 249kts
10-Nov-20 18:22 33.792600 -118.031634 63 3880ft 247kts
10-Nov-20 18:23 33.822588 -117.957095 64 3880ft 247kts
10-Nov-20 18:24 33.852389 -117.882910 64 3880ft 247kts
10-Nov-20 18:25 33.882269 -117.808358 64 3880ft 247kts
10-Nov-20 18:26 33.912070 -117.733828 64 3880ft 247kts
10-Nov-20 18:27 33.962783 -117.685527 357 3333ft 233kts
10-Nov-20 18:28 34.015910 -117.686385 16 3342ft 172kts
10-Nov-20 18:29 34.009810 -117.653809 195 3374ft 142kts
10-Nov-20 18:30 33.970413 -117.680074 209 3393ft 179kts
10-Nov-20 18:31 33.927014 -117.708795 208 3369ft 169kts
10-Nov-20 18:32 33.887438 -117.734173 207 3375ft 156kts
10-Nov-20 18:33 33.849655 -117.758267 207 3385ft 153kts
10-Nov-20 18:34 33.813479 -117.781338 207 3002ft 136kts
10-Nov-20 18:35 33.781903 -117.801472 210 2283ft 122kts
10-Nov-20 18:36 33.752286 -117.820102 210 1647ft 119kts
10-Nov-20 18:37 33.723746 -117.838410 207 1010ft 113kts
10-Nov-20 18:38 33.696285 -117.855749 208 422ft 110kts
10-Nov-20 18:40 33.673567 -117.870166 208 61ft 30kts
10-Nov-20 18:41 33.671821 -117.872755 214 61ft 8kts
10-Nov-20 18:42 33.671469 -117.873906 206 61ft 0kts
10-Nov-20 18:43 33.671469 -117.873906 206 61ft 0kts
10-Nov-20 18:44 33.671469 -117.873906 206 61ft 0kts

Navigation Log

Ident Type
Flight plan parsing failed, navigation log unavailable